createdAt,value
2023-02-23T00:02:55.977Z,6.90
2023-02-23T00:06:59.930Z,6.90
2023-02-23T00:11:05.519Z,6.90
2023-02-23T00:15:09.926Z,7.00
2023-02-23T00:19:14.212Z,7.10
2023-02-23T00:23:17.291Z,7.20
2023-02-23T00:27:22.075Z,7.20
2023-02-23T00:31:30.930Z,7.20
2023-02-23T00:35:34.680Z,7.10
2023-02-23T00:39:38.285Z,7.10
2023-02-23T00:43:47.580Z,7.10
2023-02-23T00:47:51.877Z,7.10
2023-02-23T00:51:58.527Z,7.10
2023-02-23T00:56:01.561Z,7.10
2023-02-23T01:00:15.126Z,7.00
2023-02-23T01:04:18.429Z,6.90
2023-02-23T01:08:22.442Z,6.80
2023-02-23T01:12:25.490Z,6.70
2023-02-23T01:16:36.647Z,6.60
2023-02-23T01:20:42.518Z,6.60
2023-02-23T01:24:45.575Z,6.70
2023-02-23T01:28:50.661Z,6.70
2023-02-23T01:32:58.269Z,6.80
2023-02-23T01:37:01.264Z,6.90
2023-02-23T01:41:04.974Z,7.00
2023-02-23T01:45:24.924Z,6.90
2023-02-23T01:49:34.548Z,6.90
2023-02-23T01:53:44.115Z,6.90
2023-02-23T01:57:53.561Z,6.90
2023-02-23T02:01:59.997Z,7.00
2023-02-23T02:06:10.989Z,7.00
2023-02-23T02:10:34.228Z,7.00
2023-02-23T02:14:38.674Z,7.00
2023-02-23T02:18:57.401Z,6.90
2023-02-23T02:23:29.561Z,6.90
2023-02-23T02:28:04.327Z,6.90
2023-02-23T02:32:47.907Z,6.90
2023-02-23T02:37:21.010Z,6.90
2023-02-23T02:41:35.640Z,6.90
2023-02-23T02:45:49.895Z,6.90
2023-02-23T02:50:08.486Z,6.90
2023-02-23T02:54:29.447Z,6.80
2023-02-23T02:58:34.796Z,6.80
2023-02-23T03:02:58.687Z,6.70
2023-02-23T03:07:28.604Z,6.70
2023-02-23T03:11:58.302Z,6.60
2023-02-23T03:16:28.888Z,6.60
2023-02-23T03:21:01.781Z,6.50
2023-02-23T03:25:29.175Z,6.50
2023-02-23T03:29:59.215Z,6.50
2023-02-23T03:34:29.031Z,6.40
2023-02-23T03:38:59.058Z,6.30
2023-02-23T03:43:21.344Z,6.30
2023-02-23T03:47:51.347Z,6.30
2023-02-23T03:52:17.070Z,6.20
2023-02-23T03:56:40.176Z,6.10
2023-02-23T04:01:04.320Z,5.90
2023-02-23T04:05:30.172Z,5.90
2023-02-23T04:09:51.499Z,5.80
2023-02-23T04:14:01.024Z,5.80
2023-02-23T04:18:08.143Z,5.80
2023-02-23T04:22:15.416Z,5.80
2023-02-23T04:26:18.450Z,5.70
2023-02-23T04:30:26.369Z,5.70
2023-02-23T04:34:32.752Z,5.70
2023-02-23T04:38:37.337Z,5.70
2023-02-23T04:42:41.271Z,5.70
2023-02-23T04:46:44.793Z,5.70
2023-02-23T04:50:47.823Z,5.70
2023-02-23T04:54:52.250Z,5.60
2023-02-23T04:58:56.348Z,5.60
2023-02-23T05:03:02.757Z,5.60
2023-02-23T05:07:06.270Z,5.60
2023-02-23T05:11:11.740Z,5.70
2023-02-23T05:15:15.796Z,5.70
2023-02-23T05:19:18.826Z,5.60
2023-02-23T05:23:24.164Z,5.60
2023-02-23T05:27:32.550Z,5.60
2023-02-23T05:31:36.363Z,5.50
2023-02-23T05:35:41.225Z,5.50
2023-02-23T05:39:44.601Z,5.40
2023-02-23T05:43:55.279Z,5.40
2023-02-23T05:48:00.658Z,5.40
2023-02-23T05:52:03.945Z,5.40
2023-02-23T05:56:13.481Z,5.50
2023-02-23T06:00:22.892Z,5.50
2023-02-23T06:04:25.959Z,5.50
2023-02-23T06:08:34.116Z,5.50
2023-02-23T06:12:37.557Z,5.50
2023-02-23T06:16:45.372Z,5.50
2023-02-23T06:20:57.588Z,5.60
2023-02-23T06:25:05.697Z,5.60
2023-02-23T06:29:12.213Z,5.50
2023-02-23T06:33:17.149Z,5.60
2023-02-23T06:37:20.170Z,5.60
2023-02-23T06:41:29.509Z,5.70
2023-02-23T06:45:34.757Z,5.70
2023-02-23T06:49:40.503Z,5.80
2023-02-23T06:53:45.413Z,5.90
2023-02-23T06:57:51.389Z,6.10
2023-02-23T07:01:54.464Z,6.30
2023-02-23T07:05:58.999Z,6.50
2023-02-23T07:10:02.055Z,6.60
2023-02-23T07:14:05.213Z,6.70
2023-02-23T07:18:09.391Z,6.90
2023-02-23T07:22:15.184Z,7.00
2023-02-23T07:26:20.534Z,7.10
2023-02-23T07:30:25.162Z,7.30
2023-02-23T07:34:30.957Z,7.40
2023-02-23T07:38:35.662Z,7.50
2023-02-23T07:42:38.970Z,7.70
2023-02-23T07:46:42.214Z,7.90
2023-02-23T07:50:47.377Z,8.10
2023-02-23T07:54:52.158Z,8.30
2023-02-23T07:58:57.104Z,8.50
2023-02-23T08:03:02.986Z,8.50
2023-02-23T08:07:06.117Z,8.60
2023-02-23T08:11:13.124Z,8.90
2023-02-23T08:15:21.014Z,9.10
2023-02-23T08:19:28.950Z,9.30
2023-02-23T08:23:32.720Z,9.50
2023-02-23T08:27:38.129Z,9.70
2023-02-23T08:31:41.292Z,9.90
2023-02-23T08:35:45.305Z,10.00
2023-02-23T08:39:48.407Z,10.20
2023-02-23T08:43:53.300Z,10.40
2023-02-23T08:47:58.899Z,10.70
2023-02-23T08:52:01.954Z,10.90
2023-02-23T08:56:10.510Z,11.10
2023-02-23T09:00:19.501Z,11.30
2023-02-23T09:04:22.615Z,11.60
2023-02-23T09:08:26.943Z,11.90
2023-02-23T09:12:31.563Z,12.10
2023-02-23T09:16:36.305Z,12.20
2023-02-23T09:20:42.724Z,12.40
2023-02-23T09:24:46.309Z,12.60
2023-02-23T09:28:49.558Z,12.80
2023-02-23T09:32:58.447Z,13.00
2023-02-23T09:37:06.509Z,13.20
2023-02-23T09:41:32.094Z,13.30
2023-02-23T09:45:44.880Z,13.30
2023-02-23T09:49:51.042Z,13.40
2023-02-23T09:54:01.954Z,13.40
2023-02-23T09:58:11.308Z,13.30
2023-02-23T10:02:25.748Z,13.30
2023-02-23T10:06:37.856Z,13.30
2023-02-23T10:10:48.530Z,13.30
2023-02-23T10:15:06.715Z,13.30
2023-02-23T10:19:20.531Z,13.30
2023-02-23T10:23:31.346Z,13.20
2023-02-23T10:27:42.149Z,13.30
2023-02-23T10:31:51.058Z,13.20
2023-02-23T10:36:12.527Z,13.20
2023-02-23T10:40:23.576Z,13.20
2023-02-23T10:44:29.764Z,13.20
2023-02-23T10:48:42.058Z,13.20
2023-02-23T10:52:47.973Z,13.20
2023-02-23T10:56:54.089Z,13.20
2023-02-23T11:01:01.131Z,13.20
2023-02-23T11:05:27.053Z,13.30
2023-02-23T11:09:46.176Z,13.40
2023-02-23T11:13:53.073Z,13.70
2023-02-23T11:18:02.678Z,13.80
2023-02-23T11:22:15.224Z,14.10
2023-02-23T11:26:32.450Z,14.00
2023-02-23T11:30:44.777Z,14.00
2023-02-23T11:34:49.632Z,14.00
2023-02-23T11:39:04.288Z,14.10
2023-02-23T11:43:11.059Z,14.20
2023-02-23T11:47:26.249Z,14.50
2023-02-23T11:51:37.265Z,14.80
2023-02-23T11:55:49.698Z,15.10
2023-02-23T11:59:55.594Z,15.20
2023-02-23T12:04:29.268Z,15.40
2023-02-23T12:08:41.523Z,15.60
2023-02-23T12:13:01.459Z,15.70
2023-02-23T12:17:09.830Z,16.00
2023-02-23T12:21:31.419Z,16.20
2023-02-23T12:25:40.036Z,16.10
2023-02-23T12:29:53.539Z,16.00
2023-02-23T12:34:01.855Z,15.90
2023-02-23T12:38:12.929Z,15.90
2023-02-23T12:42:22.328Z,15.90
2023-02-23T12:46:29.329Z,16.00
2023-02-23T12:50:35.695Z,16.10
2023-02-23T12:54:40.554Z,15.90
2023-02-23T12:58:52.288Z,16.10
2023-02-23T13:03:25.366Z,16.20
2023-02-23T13:07:36.767Z,16.40
2023-02-23T13:12:14.028Z,16.40
2023-02-23T13:16:27.536Z,16.60
2023-02-23T13:20:36.575Z,16.60
2023-02-23T13:24:43.760Z,16.60
2023-02-23T13:28:57.364Z,16.30
2023-02-23T13:33:05.157Z,15.90
2023-02-23T13:37:12.361Z,15.60
2023-02-23T13:41:34.270Z,15.20
2023-02-23T13:45:46.349Z,15.00
2023-02-23T13:49:56.309Z,14.80
2023-02-23T13:54:24.408Z,14.70
2023-02-23T13:58:31.047Z,14.50
2023-02-23T14:02:41.511Z,14.40
2023-02-23T14:06:56.702Z,14.40
2023-02-23T14:11:04.958Z,14.30
2023-02-23T14:15:42.464Z,14.30
2023-02-23T14:20:09.848Z,14.40
2023-02-23T14:24:21.151Z,14.50
2023-02-23T14:28:31.310Z,14.50
2023-02-23T14:32:40.081Z,14.40
2023-02-23T14:36:47.081Z,14.50
2023-02-23T14:40:51.801Z,14.50
2023-02-23T14:44:57.222Z,14.60
2023-02-23T14:49:05.637Z,14.60
2023-02-23T14:53:22.427Z,14.60
2023-02-23T14:57:44.666Z,14.70
2023-02-23T15:01:48.759Z,14.80
2023-02-23T15:05:54.997Z,15.00
2023-02-23T15:10:01.371Z,15.10
2023-02-23T15:14:08.801Z,15.00
2023-02-23T15:18:29.285Z,15.00
2023-02-23T15:22:35.524Z,15.00
2023-02-23T15:26:43.804Z,14.90
2023-02-23T15:30:48.988Z,14.70
2023-02-23T15:34:53.223Z,14.50
2023-02-23T15:39:00.465Z,14.30
2023-02-23T15:43:05.105Z,14.20
2023-02-23T15:47:16.861Z,14.10
2023-02-23T15:51:34.041Z,14.10
2023-02-23T15:55:40.728Z,13.90
2023-02-23T15:59:48.557Z,13.20
2023-02-23T16:04:00.614Z,12.80
2023-02-23T16:08:26.015Z,12.40
2023-02-23T16:12:34.769Z,12.20
2023-02-23T16:16:39.458Z,12.00
2023-02-23T16:20:47.028Z,11.70
2023-02-23T16:25:00.474Z,11.50
2023-02-23T16:29:07.442Z,11.50
2023-02-23T16:33:19.925Z,11.40
2023-02-23T16:37:31.206Z,11.30
2023-02-23T16:41:38.159Z,11.30
2023-02-23T16:45:43.046Z,11.30
2023-02-23T16:49:48.088Z,11.20
2023-02-23T16:53:52.605Z,11.00
2023-02-23T16:58:01.055Z,10.90
2023-02-23T17:02:09.838Z,10.70
2023-02-23T17:06:14.307Z,10.70
2023-02-23T17:10:25.193Z,10.60
2023-02-23T17:14:31.966Z,10.50
2023-02-23T17:18:43.005Z,10.30
2023-02-23T17:22:50.757Z,10.20
2023-02-23T17:26:57.857Z,10.10
2023-02-23T17:31:04.026Z,10.10
2023-02-23T17:35:10.072Z,10.10
2023-02-23T17:39:16.897Z,10.00
2023-02-23T17:43:23.230Z,9.90
2023-02-23T17:47:29.870Z,9.80
2023-02-23T17:51:43.747Z,9.70
2023-02-23T17:55:51.362Z,9.70
2023-02-23T17:59:55.553Z,9.60
2023-02-23T18:04:02.780Z,9.50
2023-02-23T18:08:10.572Z,9.30
2023-02-23T18:12:15.015Z,9.30
2023-02-23T18:16:18.942Z,9.20
2023-02-23T18:20:22.370Z,9.20
2023-02-23T18:24:28.684Z,9.30
2023-02-23T18:28:33.375Z,9.20
2023-02-23T18:32:39.357Z,9.30
2023-02-23T18:36:43.604Z,9.20
2023-02-23T18:40:49.206Z,9.20
2023-02-23T18:44:57.142Z,9.20
2023-02-23T18:49:03.759Z,9.30
2023-02-23T18:53:09.801Z,9.20
2023-02-23T18:57:14.271Z,9.20
2023-02-23T19:01:22.619Z,9.20
2023-02-23T19:05:26.001Z,9.20
2023-02-23T19:09:29.136Z,9.20
2023-02-23T19:13:38.129Z,9.30
2023-02-23T19:17:43.208Z,9.30
2023-02-23T19:21:49.261Z,9.20
2023-02-23T19:25:52.672Z,9.20
2023-02-23T19:29:56.787Z,9.30
2023-02-23T19:34:05.180Z,9.30
2023-02-23T19:38:09.995Z,9.30
2023-02-23T19:42:18.400Z,9.20
2023-02-23T19:46:21.433Z,9.30
2023-02-23T19:50:25.839Z,9.30
2023-02-23T19:54:38.030Z,9.30
2023-02-23T19:58:44.770Z,9.30
2023-02-23T20:02:54.974Z,9.40
2023-02-23T20:06:59.591Z,9.40
2023-02-23T20:11:07.071Z,9.40
2023-02-23T20:15:15.286Z,9.40
2023-02-23T20:19:19.848Z,9.30
2023-02-23T20:23:26.843Z,9.20
2023-02-23T20:27:30.090Z,9.20
2023-02-23T20:31:36.956Z,9.20
2023-02-23T20:35:45.069Z,9.30
2023-02-23T20:39:49.515Z,9.20
2023-02-23T20:43:52.711Z,9.20
2023-02-23T20:47:58.611Z,9.20
2023-02-23T20:52:03.345Z,9.20
2023-02-23T20:56:10.395Z,9.10
2023-02-23T21:00:23.326Z,9.00
2023-02-23T21:04:26.835Z,9.00
2023-02-23T21:08:30.186Z,9.00
2023-02-23T21:12:35.687Z,9.00
2023-02-23T21:16:40.941Z,9.00
2023-02-23T21:20:44.918Z,9.00
2023-02-23T21:24:51.479Z,9.00
2023-02-23T21:28:59.082Z,9.10
2023-02-23T21:33:06.212Z,9.10
2023-02-23T21:37:11.905Z,9.00
2023-02-23T21:41:17.394Z,9.10
2023-02-23T21:45:24.183Z,9.00
2023-02-23T21:49:30.289Z,8.90
2023-02-23T21:53:33.623Z,8.90
2023-02-23T21:57:36.698Z,8.80
2023-02-23T22:01:44.991Z,8.70
2023-02-23T22:05:51.042Z,8.70
2023-02-23T22:09:54.993Z,8.60
2023-02-23T22:13:59.954Z,8.60
2023-02-23T22:18:05.797Z,8.60
2023-02-23T22:22:08.798Z,8.50
2023-02-23T22:26:12.126Z,8.50
2023-02-23T22:30:16.993Z,8.40
2023-02-23T22:34:29.000Z,8.40
2023-02-23T22:38:32.012Z,8.30
2023-02-23T22:42:36.421Z,8.30
2023-02-23T22:46:40.174Z,8.20
2023-02-23T22:50:45.219Z,8.20
2023-02-23T22:54:48.225Z,8.10
2023-02-23T22:58:54.379Z,7.90
2023-02-23T23:03:02.221Z,7.80
2023-02-23T23:07:08.683Z,7.80
2023-02-23T23:11:13.821Z,7.80
2023-02-23T23:15:22.613Z,7.90
2023-02-23T23:19:27.043Z,7.80
2023-02-23T23:23:34.943Z,7.70
2023-02-23T23:27:41.478Z,7.70
2023-02-23T23:31:49.138Z,7.70
2023-02-23T23:35:54.522Z,7.70
2023-02-23T23:40:14.456Z,7.80
2023-02-23T23:44:18.840Z,7.80
2023-02-23T23:48:21.850Z,7.90
2023-02-23T23:52:30.015Z,8.00
2023-02-23T23:56:37.394Z,8.00
